Allagash, Maine
Current Conditions -  °F | °C
As of 6:53 PM on Saturday 25 Oct 2014 (Local Time) from KFVE Reporting Station
Overcast Overcast  
Wind Chill: 40°   Ceiling: 6000
Heat Index: 40°   Visibility: 10mi
Dew Point: 39°   Wind: 3mph
Humidity: 97%   Direction: NA
Pressure: 29.53"   Gusts: NA
Location:  47.1951°N, 69.2728°W
Report Text: KFVE 252253Z AUTO VRB03KT 10SM SCT004 OVC060 04/04 A2953 RMK AO2 SLP007 T00440039
Loading
Personal Weather Stations






























Interactive Weather Map
Tropical Storm Tracking
New forecast layout! Learn more

10-Day Weather Forecast

Advertisements
Track Severe Weather on mobile